Time;durP1;ratioP1;P1;durP2;ratioP2;P2;SDS_P1;SDS_P2;PMS_P1;PMS_P2;Temp;Humidity;BMP_temperature;BMP_pressure;BME280_temperature;BME280_humidity;BME280_pressure;Samples;Min_cycle;Max_cycle;Signal;HPM_P1;HPM_P2
2022/12/17 13:11:45;;;;;;;78.43;40.97;;;0.50;99.90;;;;;;5023958;28;20603;-80
2022/12/17 13:14:27;;;;;;;80.78;42.13;;;0.60;99.90;;;;;;4994223;28;20042;-78
2022/12/17 13:16:58;;;;;;;84.63;42.58;;;0.60;99.90;;;;;;5023498;28;20046;-80
2022/12/17 13:19:32;;;;;;;80.65;41.40;;;0.50;99.90;;;;;;5011395;28;20034;-82
2022/12/17 13:22:14;;;;;;;84.75;43.17;;;0.50;99.90;;;;;;5007317;28;20069;-80
2022/12/17 13:24:45;;;;;;;79.45;40.25;;;0.50;99.90;;;;;;5008451;28;20038;-80
2022/12/17 13:27:33;;;;;;;84.45;41.80;;;0.50;99.90;;;;;;5014737;28;20050;-80
2022/12/17 13:30:37;;;;;;;82.45;41.47;;;0.50;99.90;;;;;;5019943;28;20054;-79
2022/12/17 13:33:21;;;;;;;85.78;41.92;;;0.60;99.90;;;;;;4972994;28;20051;-78
2022/12/17 13:36:02;;;;;;;83.80;42.63;;;0.50;99.90;;;;;;4997648;28;20056;-79
2022/12/17 13:38:45;;;;;;;81.72;40.78;;;0.40;99.90;;;;;;4992965;28;20058;-80
2022/12/17 13:41:17;;;;;;;87.32;41.35;;;0.40;99.90;;;;;;5006351;28;20114;-79
2022/12/17 13:43:47;;;;;;;80.72;42.03;;;0.50;99.90;;;;;;5022472;28;20573;-80
2022/12/17 13:46:18;;;;;;;85.60;42.38;;;0.50;99.90;;;;;;5001138;28;20034;-80
2022/12/17 13:49:02;;;;;;;89.13;42.60;;;0.20;99.90;;;;;;4998094;28;20082;-81
2022/12/17 13:51:30;;;;;;;86.13;43.13;;;0.30;99.90;;;;;;5021069;28;20050;-80
2022/12/17 13:53:59;;;;;;;81.28;41.80;;;0.40;99.90;;;;;;5002908;28;20085;-78
2022/12/17 13:56:36;;;;;;;85.65;42.70;;;0.30;99.90;;;;;;5003384;28;20061;-80
2022/12/17 13:59:04;;;;;;;84.50;43.08;;;0.30;99.90;;;;;;5005012;28;20105;-79
2022/12/17 14:01:30;;;;;;;81.47;42.63;;;0.10;99.90;;;;;;4971207;28;20053;-77
2022/12/17 14:04:00;;;;;;;86.30;44.22;;;0.10;99.90;;;;;;5003092;28;20700;-81
2022/12/17 14:06:32;;;;;;;85.85;44.75;;;0.10;99.90;;;;;;5019431;28;20066;-81
2022/12/17 14:08:58;;;;;;;86.72;42.92;;;0.10;99.90;;;;;;5062673;28;20053;-78
2022/12/17 14:14:34;;;;;;;85.90;43.20;;;0.00;99.90;;;;;;5050490;28;20045;-79
2022/12/17 14:17:00;;;;;;;86.07;43.80;;;-0.10;99.90;;;;;;5055361;28;20048;-77
2022/12/17 14:19:27;;;;;;;91.00;45.92;;;-0.10;99.90;;;;;;5035369;28;20053;-77
2022/12/17 14:21:54;;;;;;;87.50;41.28;;;-0.20;99.90;;;;;;5055109;28;20060;-79
2022/12/17 14:24:25;;;;;;;83.43;43.30;;;-0.20;99.90;;;;;;5049146;28;20049;-80
2022/12/17 14:26:55;;;;;;;87.95;44.22;;;-0.10;99.90;;;;;;5075374;28;20049;-82
2022/12/17 14:29:24;;;;;;;86.53;41.53;;;-0.30;99.90;;;;;;5083322;28;20049;-79
2022/12/17 14:31:59;;;;;;;83.35;42.67;;;-0.30;99.90;;;;;;5067425;28;20108;-81
2022/12/17 14:34:25;;;;;;;90.68;43.33;;;-0.10;99.90;;;;;;5068828;28;20094;-80
2022/12/17 14:37:00;;;;;;;91.78;42.00;;;-0.40;99.90;;;;;;5091887;28;20056;-81
2022/12/17 14:39:29;;;;;;;;;;;-0.40;99.90;;;;;;5097569;28;20021;-80
2022/12/17 14:42:24;;;;;;;90.57;40.63;;;-0.40;99.90;;;;;;5063373;28;19928;-80
2022/12/17 14:44:53;;;;;;;89.40;42.45;;;-0.30;99.90;;;;;;5061167;28;20029;-81
2022/12/17 14:47:28;;;;;;;95.68;44.08;;;-0.30;99.90;;;;;;5072270;28;20029;-78
2022/12/17 14:50:13;;;;;;;93.80;44.03;;;-0.50;99.90;;;;;;5050316;28;20037;-79
2022/12/17 14:53:22;;;;;;;98.22;45.58;;;-0.70;99.90;;;;;;5029914;28;20053;-79
2022/12/17 14:55:55;;;;;;;97.00;42.88;;;-0.70;99.90;;;;;;5009627;28;20058;-82
2022/12/17 14:58:23;;;;;;;99.28;45.05;;;-0.50;99.90;;;;;;5033491;28;20054;-80
2022/12/17 15:00:54;;;;;;;92.07;42.88;;;-0.60;99.90;;;;;;5051808;28;20132;-80
2022/12/17 15:03:28;;;;;;;95.15;44.78;;;-0.80;99.90;;;;;;5033220;28;20038;-80
2022/12/17 15:05:59;;;;;;;100.72;48.40;;;-0.80;99.90;;;;;;5030452;28;20116;-79
2022/12/17 15:08:32;;;;;;;94.38;44.22;;;-0.80;99.90;;;;;;5017914;28;20052;-79
2022/12/17 15:10:58;;;;;;;91.57;43.08;;;-0.80;99.90;;;;;;5006589;28;20046;-82
2022/12/17 15:13:24;;;;;;;99.18;45.55;;;-0.90;99.90;;;;;;5021679;28;20053;-77
2022/12/17 15:15:49;;;;;;;99.63;43.83;;;-0.80;99.90;;;;;;5007691;28;20049;-78
2022/12/17 15:18:15;;;;;;;93.30;43.25;;;-0.90;99.90;;;;;;5001599;28;20105;-78
2022/12/17 15:20:41;;;;;;;90.97;43.67;;;-1.10;99.90;;;;;;5029177;28;20129;-80
2022/12/17 15:23:48;;;;;;;94.55;43.78;;;-1.20;99.90;;;;;;5036587;28;20094;-79
2022/12/17 15:26:14;;;;;;;94.68;42.47;;;-1.30;99.90;;;;;;5031036;28;20116;-82
2022/12/17 15:28:41;;;;;;;100.18;44.08;;;-1.10;99.90;;;;;;4996796;28;20053;-79
2022/12/17 15:31:12;;;;;;;100.15;43.58;;;-1.40;99.90;;;;;;5005359;28;20377;-77
2022/12/17 15:33:38;;;;;;;91.10;41.83;;;-1.40;99.90;;;;;;5061975;28;20064;-79
2022/12/17 15:36:04;;;;;;;94.82;42.20;;;-1.30;99.90;;;;;;5044102;28;20537;-80
2022/12/17 15:38:30;;;;;;;97.18;42.88;;;-1.50;99.90;;;;;;5039341;28;20045;-79
2022/12/17 15:40:59;;;;;;;102.22;44.42;;;-1.20;99.90;;;;;;5042908;28;20122;-81
2022/12/17 15:43:25;;;;;;;103.10;43.72;;;-1.50;99.90;;;;;;5031141;28;20051;-78
2022/12/17 15:45:51;;;;;;;96.68;43.80;;;-1.30;99.90;;;;;;5036983;28;20124;-82
2022/12/17 15:48:19;;;;;;;98.57;43.35;;;-1.40;99.90;;;;;;5044031;28;20473;-79
2022/12/17 15:50:45;;;;;;;101.75;44.85;;;-1.70;99.90;;;;;;5049289;28;20129;-82
2022/12/17 15:53:12;;;;;;;102.03;45.75;;;-1.60;99.90;;;;;;5016193;28;20493;-80
2022/12/17 15:55:39;;;;;;;103.18;42.95;;;-1.40;99.90;;;;;;5020556;28;21107;-82
2022/12/17 15:58:06;;;;;;;106.45;44.83;;;-1.60;99.90;;;;;;5055144;28;20045;-79
2022/12/17 16:00:32;;;;;;;99.70;43.28;;;-1.60;99.90;;;;;;5040065;28;20128;-82
2022/12/17 16:02:58;;;;;;;95.85;42.50;;;-1.50;99.90;;;;;;5036403;28;20071;-81
2022/12/17 16:05:23;;;;;;;99.13;43.92;;;-1.70;99.90;;;;;;5037719;28;20084;-80
2022/12/17 16:11:54;;;;;;;98.20;41.40;;;-1.70;99.90;;;;;;5042343;28;20086;-80
2022/12/17 16:14:20;;;;;;;109.63;47.00;;;-1.60;99.90;;;;;;5052653;28;20045;-81
2022/12/17 16:16:46;;;;;;;99.63;42.25;;;-1.80;99.90;;;;;;5062969;28;20040;-80
2022/12/17 16:19:12;;;;;;;104.22;43.95;;;-1.70;99.90;;;;;;5051887;28;20492;-80
2022/12/17 16:21:37;;;;;;;118.15;47.15;;;-1.60;99.90;;;;;;5050233;28;20411;-82
2022/12/17 16:27:28;;;;;;;106.07;41.50;;;-1.80;99.90;;;;;;5043683;28;20124;-81
2022/12/17 16:29:54;;;;;;;109.18;44.63;;;-1.90;99.90;;;;;;5058285;28;20073;-82
2022/12/17 16:32:20;;;;;;;110.18;42.03;;;-2.10;99.90;;;;;;5052427;28;20044;-84
2022/12/17 16:34:45;;;;;;;104.68;41.65;;;-1.90;99.90;;;;;;5024011;28;20091;-82
2022/12/17 16:37:11;;;;;;;107.05;42.45;;;-2.00;99.90;;;;;;5023023;28;20444;-83
2022/12/17 16:40:14;;;;;;;107.75;41.33;;;-2.10;99.90;;;;;;5039996;28;20057;-82
2022/12/17 16:42:40;;;;;;;111.13;40.83;;;-1.80;99.90;;;;;;5029225;28;20215;-82
2022/12/17 16:45:07;;;;;;;109.28;43.08;;;-2.10;99.90;;;;;;5042850;28;20242;-84
2022/12/17 16:47:33;;;;;;;109.05;41.22;;;-2.20;99.90;;;;;;5063660;28;20057;-83
2022/12/17 16:49:59;;;;;;;116.82;43.30;;;-2.20;99.90;;;;;;5035369;28;20472;-81
2022/12/17 16:52:24;;;;;;;107.82;40.33;;;-2.10;99.90;;;;;;5033065;28;20049;-80
2022/12/17 16:54:50;;;;;;;112.90;42.10;;;-2.00;99.90;;;;;;5044216;28;20041;-83
2022/12/17 16:57:16;;;;;;;113.85;41.50;;;-1.90;99.90;;;;;;5040750;28;20115;-82
2022/12/17 16:59:41;;;;;;;118.38;42.65;;;-1.90;99.90;;;;;;5046229;28;20037;-82
2022/12/17 17:02:14;;;;;;;111.18;40.70;;;-2.10;99.90;;;;;;5043388;28;20049;-81
2022/12/17 17:04:40;;;;;;;118.45;41.72;;;-2.10;99.90;;;;;;5042717;28;20037;-81
2022/12/17 17:07:06;;;;;;;104.93;39.97;;;-2.20;99.90;;;;;;5066714;28;20419;-81
2022/12/17 17:09:32;;;;;;;113.85;41.30;;;-2.10;99.90;;;;;;5040341;28;20432;-77
2022/12/17 17:11:57;;;;;;;122.00;41.33;;;-2.30;99.90;;;;;;5041720;28;20531;-79
2022/12/17 17:14:25;;;;;;;112.78;40.83;;;-2.30;99.90;;;;;;5039409;28;20068;-80
2022/12/17 17:16:51;;;;;;;126.25;43.97;;;-2.00;99.90;;;;;;5007893;28;20079;-79
2022/12/17 17:19:18;;;;;;;117.93;42.25;;;-2.20;99.90;;;;;;5058878;28;20421;-81
2022/12/17 17:21:52;;;;;;;123.13;45.13;;;-2.00;99.90;;;;;;5046173;28;20136;-81
2022/12/17 17:24:20;;;;;;;122.20;41.22;;;-2.00;99.90;;;;;;5042267;28;20037;-84
2022/12/17 17:26:46;;;;;;;113.72;40.80;;;-2.00;99.90;;;;;;5050604;28;20064;-82
2022/12/17 17:29:12;;;;;;;117.78;41.17;;;-2.30;99.90;;;;;;5036411;28;20052;-78
2022/12/17 17:31:40;;;;;;;111.85;40.17;;;-2.30;99.90;;;;;;5032274;28;20037;-81
2022/12/17 17:34:12;;;;;;;113.70;41.25;;;-2.30;99.90;;;;;;5045673;28;20082;-81
2022/12/17 17:36:39;;;;;;;110.50;39.15;;;-2.00;99.90;;;;;;5029337;28;20535;-80
2022/12/17 17:39:42;;;;;;;122.13;41.55;;;-2.10;99.90;;;;;;5038488;28;20079;-80
2022/12/17 17:42:07;;;;;;;125.97;42.67;;;-2.30;99.90;;;;;;5070557;28;20044;-79
2022/12/17 17:44:33;;;;;;;120.82;40.17;;;-2.20;99.90;;;;;;5033939;28;20435;-82
2022/12/17 17:46:59;;;;;;;122.43;42.72;;;-1.90;99.90;;;;;;5034438;28;20762;-80
2022/12/17 17:49:25;;;;;;;118.85;40.88;;;-2.00;99.90;;;;;;5050008;28;20045;-81
2022/12/17 17:51:50;;;;;;;114.35;38.88;;;-2.20;99.90;;;;;;5020429;28;20064;-80
2022/12/17 17:54:16;;;;;;;122.15;41.47;;;-2.10;99.90;;;;;;5021832;28;20044;-83
2022/12/17 17:56:42;;;;;;;125.05;41.20;;;-2.20;99.90;;;;;;5015823;28;20045;-83
2022/12/17 17:59:14;;;;;;;121.88;40.78;;;-2.20;99.90;;;;;;5037298;28;20132;-81
2022/12/17 18:01:46;;;;;;;123.88;40.90;;;-2.30;99.90;;;;;;5060007;28;20056;-81
2022/12/17 18:04:15;;;;;;;119.97;39.88;;;-2.10;99.90;;;;;;5015298;28;20598;-81
2022/12/17 18:06:43;;;;;;;117.75;39.88;;;-2.30;99.90;;;;;;5038671;28;20049;-80
2022/12/17 18:09:10;;;;;;;116.55;38.85;;;-2.20;99.90;;;;;;5041291;28;20064;-81
2022/12/17 18:11:40;;;;;;;115.95;38.33;;;-2.00;99.90;;;;;;5015354;28;20041;-80
2022/12/17 18:14:08;;;;;;;118.18;40.00;;;-1.90;99.90;;;;;;5036312;28;20046;-82
2022/12/17 18:16:37;;;;;;;114.88;39.45;;;-2.20;99.90;;;;;;5039492;28;20054;-82
2022/12/17 18:19:14;;;;;;;115.93;41.35;;;-2.00;99.90;;;;;;5019409;28;20037;-81
2022/12/17 18:21:40;;;;;;;113.85;38.83;;;-2.10;99.90;;;;;;5038451;28;20030;-81
2022/12/17 18:24:10;;;;;;;116.38;40.55;;;-1.90;99.90;;;;;;5063881;28;20029;-82
2022/12/17 18:26:41;;;;;;;115.97;40.47;;;-2.00;99.90;;;;;;5045207;28;20107;-80
2022/12/17 18:29:19;;;;;;;117.15;40.78;;;-2.10;99.90;;;;;;5045297;28;20151;-81
2022/12/17 18:31:46;;;;;;;113.75;40.40;;;-2.20;99.90;;;;;;5038781;28;20488;-83
2022/12/17 18:34:13;;;;;;;109.47;38.15;;;-2.30;99.90;;;;;;5029758;28;20374;-82
2022/12/17 18:36:41;;;;;;;109.75;38.17;;;-1.90;99.90;;;;;;5056587;28;20041;-80
2022/12/17 18:39:21;;;;;;;109.57;37.05;;;-2.00;99.90;;;;;;5045235;28;20075;-80
2022/12/17 18:44:36;;;;;;;108.25;38.78;;;-2.10;99.90;;;;;;5041989;28;20215;-81
2022/12/17 18:47:02;;;;;;;104.70;36.85;;;-2.30;99.90;;;;;;5027542;28;20163;-80
2022/12/17 18:49:28;;;;;;;110.75;39.83;;;-2.30;99.90;;;;;;5047417;28;20055;-83
2022/12/17 18:51:54;;;;;;;112.03;38.78;;;-2.00;99.90;;;;;;5035809;28;20484;-79
2022/12/17 18:54:23;;;;;;;99.55;36.40;;;-2.20;99.90;;;;;;5017828;28;20781;-80
2022/12/17 18:56:49;;;;;;;106.25;37.88;;;-2.40;99.90;;;;;;5063851;28;20484;-81
2022/12/17 18:59:18;;;;;;;114.28;38.78;;;-2.40;99.90;;;;;;5040392;28;20100;-81
2022/12/17 19:01:44;;;;;;;97.68;37.03;;;-2.20;99.90;;;;;;5026856;28;20099;-80
2022/12/17 19:04:13;;;;;;;109.03;36.45;;;-2.50;99.90;;;;;;5020378;28;20066;-81
2022/12/17 19:06:39;;;;;;;111.13;38.38;;;-2.30;99.90;;;;;;5035033;28;20419;-82
2022/12/17 19:09:06;;;;;;;108.95;36.38;;;-2.60;99.90;;;;;;5029914;28;20729;-79
2022/12/17 19:11:34;;;;;;;107.07;37.40;;;-2.30;99.90;;;;;;5031618;28;20073;-79
2022/12/17 19:14:00;;;;;;;117.30;38.30;;;-2.40;99.90;;;;;;5040265;28;20124;-81
2022/12/17 19:16:28;;;;;;;111.93;39.05;;;-2.50;99.90;;;;;;5043038;28;20074;-80
2022/12/17 19:18:58;;;;;;;114.65;37.97;;;-2.60;99.90;;;;;;5053576;28;20033;-82
2022/12/17 19:21:24;;;;;;;113.07;39.35;;;-2.50;99.90;;;;;;5047217;28;20103;-80
2022/12/17 19:23:55;;;;;;;107.95;39.05;;;-2.60;99.90;;;;;;5051481;28;20087;-79
2022/12/17 19:26:21;;;;;;;110.55;38.20;;;-2.30;99.90;;;;;;5039694;28;20084;-79
2022/12/17 19:28:49;;;;;;;110.65;38.42;;;-2.50;99.90;;;;;;5053525;28;20067;-80
2022/12/17 19:31:17;;;;;;;118.30;40.33;;;-2.40;99.90;;;;;;5061506;28;20069;-81
2022/12/17 19:33:44;;;;;;;118.82;39.95;;;-2.40;99.90;;;;;;5026749;28;20080;-81
2022/12/17 19:36:12;;;;;;;113.68;39.92;;;-2.50;99.90;;;;;;5048157;28;20041;-81
2022/12/17 19:38:38;;;;;;;116.53;39.83;;;-2.30;99.90;;;;;;5046172;28;20041;-80
2022/12/17 19:41:15;;;;;;;116.25;39.13;;;-2.60;99.90;;;;;;5053228;28;20490;-81
2022/12/17 19:43:42;;;;;;;113.72;39.65;;;-2.50;99.90;;;;;;5080128;28;20121;-80
2022/12/17 19:46:11;;;;;;;113.00;39.25;;;-2.50;99.90;;;;;;5025573;28;20060;-79
2022/12/17 19:48:39;;;;;;;111.55;39.28;;;-2.40;99.90;;;;;;5028825;28;20095;-82
2022/12/17 19:51:05;;;;;;;110.65;37.92;;;-2.50;99.90;;;;;;5049502;28;20042;-82
2022/12/17 19:57:04;;;;;;;127.85;42.45;;;-2.50;99.90;;;;;;5040240;28;20068;-83
2022/12/17 19:59:29;;;;;;;107.93;39.00;;;-2.50;99.90;;;;;;5044335;28;20033;-80
2022/12/17 20:01:55;;;;;;;112.10;40.83;;;-2.50;99.90;;;;;;5051638;28;20032;-81
2022/12/17 20:04:21;;;;;;;117.70;40.70;;;-2.30;99.90;;;;;;5025828;28;20046;-82
2022/12/17 20:06:47;;;;;;;107.82;39.70;;;-2.40;99.90;;;;;;5044027;28;20530;-84
2022/12/17 20:12:53;;;;;;;113.32;40.42;;;-2.40;99.90;;;;;;5047071;28;20043;-82
2022/12/17 20:15:19;;;;;;;108.07;41.92;;;-2.50;99.90;;;;;;5037931;28;20041;-82
2022/12/17 20:17:44;;;;;;;117.60;42.70;;;-2.40;99.90;;;;;;5059888;28;20048;-82
2022/12/17 20:20:10;;;;;;;110.95;42.28;;;-2.60;99.90;;;;;;5059711;28;20041;-80
2022/12/17 20:22:36;;;;;;;108.90;42.17;;;-2.40;99.90;;;;;;5049726;28;20042;-81
2022/12/17 20:28:44;;;;;;;105.82;43.70;;;-2.30;99.90;;;;;;5052200;28;20063;-80
2022/12/17 20:31:10;;;;;;;100.93;42.08;;;-2.30;99.90;;;;;;5040728;28;20532;-80
2022/12/17 20:33:36;;;;;;;106.93;42.80;;;-2.70;99.90;;;;;;5032349;28;20373;-82
2022/12/17 20:36:08;;;;;;;98.75;42.17;;;-2.60;99.90;;;;;;5046625;28;20477;-81
2022/12/17 20:39:05;;;;;;;101.60;41.13;;;-2.50;99.90;;;;;;5028425;28;20069;-80
2022/12/17 20:41:35;;;;;;;94.28;40.60;;;-2.30;99.90;;;;;;5053343;28;20094;-78
2022/12/17 20:44:06;;;;;;;95.60;41.50;;;-2.40;99.90;;;;;;5027023;28;20044;-80
2022/12/17 20:46:35;;;;;;;99.22;41.40;;;-2.70;99.90;;;;;;5023794;28;20056;-82
2022/12/17 20:49:02;;;;;;;101.63;42.10;;;-2.80;99.90;;;;;;5049352;28;20048;-79
2022/12/17 20:51:29;;;;;;;98.78;42.78;;;-2.80;99.90;;;;;;5045686;28;20046;-79
2022/12/17 20:57:35;;;;;;;101.18;43.05;;;-2.60;99.90;;;;;;5047014;28;20036;-80
2022/12/17 21:00:01;;;;;;;102.57;47.25;;;-2.90;99.90;;;;;;5026015;28;20037;-83
2022/12/17 21:02:27;;;;;;;109.40;45.28;;;-2.80;99.90;;;;;;5026554;28;20077;-80
2022/12/17 21:04:52;;;;;;;105.68;45.33;;;-2.60;99.90;;;;;;5042570;28;20045;-78
2022/12/17 21:07:18;;;;;;;100.88;44.83;;;-2.60;99.90;;;;;;5038111;28;20460;-79
2022/12/17 21:10:02;;;;;;;109.40;48.10;;;-2.80;99.90;;;;;;5036607;28;20065;-78
2022/12/17 21:13:27;;;;;;;113.68;48.30;;;-2.90;99.90;;;;;;5053133;28;20057;-79
2022/12/17 21:15:15;;;;;;;115.07;47.90;;;-2.80;99.90;;;;;;5029719;28;20479;-81
2022/12/17 21:17:40;;;;;;;110.00;45.78;;;-2.50;99.90;;;;;;5040485;28;20068;-84
2022/12/17 21:20:06;;;;;;;110.60;47.15;;;-2.60;99.90;;;;;;5020706;28;20049;-84
2022/12/17 21:22:32;;;;;;;110.35;47.30;;;-2.50;99.90;;;;;;5030329;28;20745;-85
2022/12/17 21:24:57;;;;;;;107.65;45.33;;;-2.70;99.90;;;;;;5046575;28;20041;-82
2022/12/17 21:27:23;;;;;;;110.82;48.72;;;-2.50;99.90;;;;;;5044017;28;20159;-86
2022/12/17 21:29:49;;;;;;;113.00;46.67;;;-2.50;99.90;;;;;;5046675;28;20407;-82
2022/12/17 21:32:15;;;;;;;118.30;49.92;;;-2.60;99.90;;;;;;5046039;28;20160;-85
2022/12/17 21:34:41;;;;;;;112.13;47.55;;;-2.70;99.90;;;;;;5030844;28;20037;-82
2022/12/17 21:37:07;;;;;;;113.80;47.72;;;-2.70;99.90;;;;;;5044756;28;20060;-81
2022/12/17 21:39:52;;;;;;;112.72;47.05;;;-2.50;99.90;;;;;;5044632;28;20045;-84
2022/12/17 21:45:06;;;;;;;118.07;48.20;;;-2.40;99.90;;;;;;5052378;28;20052;-83
2022/12/17 21:47:33;;;;;;;123.85;49.35;;;-2.40;99.90;;;;;;5028707;28;20596;-81
2022/12/17 21:49:58;;;;;;;114.53;48.05;;;-2.40;99.90;;;;;;5041601;28;20041;-80
2022/12/17 21:52:25;;;;;;;108.55;45.78;;;-2.60;99.90;;;;;;5026812;28;20055;-81
2022/12/17 21:54:51;;;;;;;114.00;48.50;;;-2.70;99.90;;;;;;5050586;28;20066;-81
2022/12/17 21:57:16;;;;;;;116.60;46.33;;;-2.50;99.90;;;;;;5057873;28;20045;-83
2022/12/17 21:59:42;;;;;;;114.00;45.60;;;-2.60;99.90;;;;;;5046806;28;20206;-82
2022/12/17 22:02:09;;;;;;;111.35;46.75;;;-2.40;99.90;;;;;;5032188;28;20068;-83
2022/12/17 22:04:35;;;;;;;114.20;44.63;;;-2.60;99.90;;;;;;5040927;28;20123;-82
2022/12/17 22:07:00;;;;;;;112.82;45.83;;;-2.70;99.90;;;;;;5044300;28;20068;-82
2022/12/17 22:09:26;;;;;;;114.25;43.70;;;-2.60;99.90;;;;;;5046711;28;20110;-82
2022/12/17 22:14:01;;;;;;;112.32;44.05;;;-2.70;99.90;;;;;;5041526;28;20124;-81
2022/12/17 22:14:37;;;;;;;110.55;44.15;;;-2.80;99.90;;;;;;5041229;28;20386;-83
2022/12/17 22:17:03;;;;;;;110.28;46.03;;;-2.70;99.90;;;;;;5042501;28;20052;-83
2022/12/17 22:19:28;;;;;;;101.78;41.95;;;-2.60;99.90;;;;;;5041775;28;20502;-80
2022/12/17 22:21:54;;;;;;;106.68;43.40;;;-2.60;99.90;;;;;;5069088;28;20069;-82
2022/12/17 22:24:23;;;;;;;111.70;44.53;;;-2.60;99.90;;;;;;5053583;28;20029;-81
2022/12/17 22:26:49;;;;;;;108.18;42.45;;;-2.80;99.90;;;;;;5027066;28;20170;-82
2022/12/17 22:32:58;;;;;;;103.50;42.35;;;-2.50;99.90;;;;;;5041354;28;20120;-83
2022/12/17 22:34:45;;;;;;;102.25;43.20;;;-2.60;99.90;;;;;;5046866;28;20499;-81
2022/12/17 22:37:11;;;;;;;102.28;41.28;;;-2.90;99.90;;;;;;5020212;28;20471;-83
2022/12/17 22:39:36;;;;;;;112.88;45.10;;;-2.60;99.90;;;;;;5030394;28;20091;-81
2022/12/17 22:44:46;;;;;;;109.82;41.20;;;-2.70;99.90;;;;;;5037579;28;20041;-83
2022/12/17 22:47:12;;;;;;;104.65;42.10;;;-2.90;99.90;;;;;;5048980;28;20049;-83
2022/12/17 22:49:38;;;;;;;102.60;43.55;;;-2.80;99.90;;;;;;5035458;28;20037;-82
2022/12/17 22:52:03;;;;;;;108.20;41.90;;;-2.70;99.90;;;;;;5033011;28;20254;-82
2022/12/17 22:54:47;;;;;;;104.75;42.58;;;-2.80;99.90;;;;;;5037146;28;20487;-84
2022/12/17 22:57:13;;;;;;;105.95;40.25;;;-2.90;99.90;;;;;;5047805;28;20045;-81
2022/12/17 22:59:39;;;;;;;112.90;43.33;;;-2.70;99.90;;;;;;5066008;28;20048;-81
2022/12/17 23:02:06;;;;;;;114.72;44.75;;;-3.00;99.90;;;;;;5038953;28;20069;-81
2022/12/17 23:04:32;;;;;;;116.22;43.28;;;-2.70;99.90;;;;;;5027658;28;20140;-81
2022/12/17 23:06:58;;;;;;;123.85;45.65;;;-2.80;99.90;;;;;;5036040;28;20453;-82
2022/12/17 23:09:23;;;;;;;119.18;42.80;;;-2.90;99.90;;;;;;5025735;28;20033;-82
2022/12/17 23:11:49;;;;;;;125.03;44.08;;;-3.00;99.90;;;;;;5054096;28;20052;-80
2022/12/17 23:14:16;;;;;;;113.70;44.25;;;-2.90;99.90;;;;;;5053697;28;20060;-79
2022/12/17 23:16:41;;;;;;;119.93;43.15;;;-2.90;99.90;;;;;;5043517;28;20053;-80
2022/12/17 23:19:08;;;;;;;114.75;43.22;;;-2.70;99.90;;;;;;5056980;28;20045;-80
2022/12/17 23:21:33;;;;;;;111.03;42.40;;;-2.80;99.90;;;;;;5061866;28;20060;-82
2022/12/17 23:23:59;;;;;;;108.05;39.92;;;-2.80;99.90;;;;;;5040739;28;20143;-83
2022/12/17 23:26:32;;;;;;;113.03;41.28;;;-3.00;99.90;;;;;;5046320;28;20037;-83
2022/12/17 23:29:01;;;;;;;112.20;41.50;;;-2.70;99.90;;;;;;5050348;28;20071;-82
2022/12/17 23:31:31;;;;;;;118.97;43.00;;;-2.80;99.90;;;;;;5040521;28;20037;-81
2022/12/17 23:33:56;;;;;;;105.88;42.63;;;-2.70;99.90;;;;;;5053228;28;20052;-81
2022/12/17 23:36:24;;;;;;;114.35;43.03;;;-2.60;99.90;;;;;;5052703;28;20037;-81
2022/12/17 23:38:50;;;;;;;118.93;44.10;;;-2.80;99.90;;;;;;5027995;28;20048;-81
2022/12/17 23:41:18;;;;;;;117.57;44.42;;;-2.90;99.90;;;;;;5033636;28;20118;-83
2022/12/17 23:43:44;;;;;;;121.55;45.17;;;-3.00;99.90;;;;;;5032310;28;20397;-82
2022/12/17 23:46:11;;;;;;;119.10;43.28;;;-2.90;99.90;;;;;;5034117;28;20461;-83
2022/12/17 23:48:42;;;;;;;109.38;41.85;;;-2.80;99.90;;;;;;5042622;28;20048;-82
2022/12/17 23:51:09;;;;;;;115.65;41.58;;;-2.90;99.90;;;;;;5048259;28;20132;-81
2022/12/17 23:53:36;;;;;;;109.40;40.47;;;-2.70;99.90;;;;;;5016522;28;20085;-82
2022/12/17 23:56:06;;;;;;;106.82;40.17;;;-2.70;99.90;;;;;;5048572;28;20124;-82
2022/12/17 23:58:33;;;;;;;116.60;42.28;;;-3.10;99.90;;;;;;5019247;28;20052;-81
